Time;durP1;ratioP1;P1;durP2;ratioP2;P2;SDS_P1;SDS_P2;PMS_P1;PMS_P2;Temp;Humidity;BMP_temperature;BMP_pressure;BME280_temperature;BME280_humidity;BME280_pressure;Samples;Min_cycle;Max_cycle;Signal;HPM_P1;HPM_P2
2022/07/24 00:02:03;;;;;;;6.88;5.25;;;;;;;;;;5032984;28;20487;-87
2022/07/24 00:04:29;;;;;;;8.23;6.28;;;;;;;;;;5033683;28;20458;-87
2022/07/24 00:06:55;;;;;;;7.88;5.63;;;;;;;;;;5040201;28;20032;-87
2022/07/24 00:09:21;;;;;;;9.18;5.38;;;;;;;;;;5042487;28;20017;-87
2022/07/24 00:11:47;;;;;;;7.15;5.13;;;;;;;;;;5032092;28;20034;-87
2022/07/24 00:14:13;;;;;;;7.28;5.53;;;;;;;;;;5033526;28;20248;-87
2022/07/24 00:16:39;;;;;;;8.32;5.47;;;;;;;;;;5032655;28;20065;-87
2022/07/24 00:19:06;;;;;;;9.02;5.60;;;;;;;;;;5039377;28;20481;-87
2022/07/24 00:21:32;;;;;;;7.93;5.60;;;;;;;;;;5026171;28;20025;-87
2022/07/24 00:23:58;;;;;;;8.15;5.55;;;;;;;;;;5031706;28;20017;-87
2022/07/24 00:26:24;;;;;;;10.55;5.43;;;;;;;;;;5032492;28;20021;-87
2022/07/24 00:28:50;;;;;;;8.02;5.88;;;;;;;;;;5020323;28;20404;-87
2022/07/24 00:31:16;;;;;;;8.57;5.53;;;;;;;;;;5012827;28;20116;-87
2022/07/24 00:33:42;;;;;;;7.88;4.85;;;;;;;;;;5012986;28;20520;-87
2022/07/24 00:36:09;;;;;;;7.78;5.07;;;;;;;;;;5013735;28;20137;-87
2022/07/24 00:38:35;;;;;;;7.72;4.82;;;;;;;;;;5012240;28;20113;-87
2022/07/24 00:41:01;;;;;;;7.22;5.22;;;;;;;;;;5011370;28;20117;-87
2022/07/24 00:43:27;;;;;;;7.88;5.15;;;;;;;;;;5013599;28;20476;-86
2022/07/24 00:45:53;;;;;;;8.68;5.22;;;;;;;;;;5012457;28;20026;-87
2022/07/24 00:48:19;;;;;;;8.20;5.65;;;;;;;;;;5021090;28;20030;-87
2022/07/24 00:50:45;;;;;;;7.25;5.18;;;;;;;;;;5012254;28;20044;-87
2022/07/24 00:53:11;;;;;;;9.60;6.00;;;;;;;;;;5022555;28;20036;-87
2022/07/24 00:55:37;;;;;;;10.13;6.13;;;;;;;;;;5012139;28;20026;-87
2022/07/24 00:58:03;;;;;;;8.65;5.35;;;;;;;;;;5013259;28;20163;-87
2022/07/24 01:00:29;;;;;;;8.48;5.90;;;;;;;;;;5013568;28;20061;-87
2022/07/24 01:02:56;;;;;;;7.40;5.32;;;;;;;;;;5011337;28;20021;-87
2022/07/24 01:05:23;;;;;;;8.40;6.10;;;;;;;;;;5010538;28;20115;-87
2022/07/24 01:07:49;;;;;;;7.95;5.40;;;;;;;;;;5012015;28;20116;-87
2022/07/24 01:10:15;;;;;;;9.15;5.72;;;;;;;;;;5012243;28;20030;-87
2022/07/24 01:12:41;;;;;;;8.82;6.25;;;;;;;;;;5011924;28;20112;-87
2022/07/24 01:15:09;;;;;;;11.48;5.53;;;;;;;;;;5018852;28;20439;-87
2022/07/24 01:17:36;;;;;;;9.35;5.55;;;;;;;;;;5014535;28;20060;-87
2022/07/24 01:20:03;;;;;;;7.53;5.20;;;;;;;;;;5012554;28;20026;-87
2022/07/24 01:22:29;;;;;;;8.18;5.40;;;;;;;;;;5015560;28;20472;-86
2022/07/24 01:24:56;;;;;;;7.60;4.47;;;;;;;;;;5006032;28;20030;-87
2022/07/24 01:27:22;;;;;;;7.43;5.13;;;;;;;;;;5019053;28;20514;-88
2022/07/24 01:29:48;;;;;;;7.30;5.28;;;;;;;;;;5032822;28;20034;-87
2022/07/24 01:32:15;;;;;;;7.63;4.85;;;;;;;;;;5033682;28;20514;-86
2022/07/24 01:34:41;;;;;;;7.65;5.57;;;;;;;;;;5031819;28;20033;-87
2022/07/24 01:37:07;;;;;;;8.05;5.63;;;;;;;;;;5051175;28;20029;-87
2022/07/24 01:39:33;;;;;;;8.23;5.28;;;;;;;;;;5046081;28;20028;-87
2022/07/24 01:41:59;;;;;;;9.00;5.43;;;;;;;;;;5032710;28;20036;-87
2022/07/24 01:44:25;;;;;;;7.38;5.45;;;;;;;;;;5036648;28;20037;-87
2022/07/24 01:46:51;;;;;;;8.63;5.72;;;;;;;;;;5037354;28;20395;-87
2022/07/24 01:49:17;;;;;;;7.72;5.63;;;;;;;;;;5016728;28;20026;-87
2022/07/24 01:51:43;;;;;;;8.88;6.47;;;;;;;;;;5030353;28;20026;-87
2022/07/24 01:54:09;;;;;;;8.30;6.30;;;;;;;;;;5031108;28;20103;-87
2022/07/24 01:56:35;;;;;;;9.68;6.93;;;;;;;;;;5030620;28;20033;-87
2022/07/24 01:59:01;;;;;;;10.27;7.63;;;;;;;;;;5043128;28;20032;-87
2022/07/24 02:01:29;;;;;;;11.02;7.50;;;;;;;;;;5050991;28;20032;-87
2022/07/24 02:03:55;;;;;;;9.93;7.63;;;;;;;;;;5045621;28;20108;-87
2022/07/24 02:06:21;;;;;;;10.00;7.78;;;;;;;;;;5031661;28;20084;-87
2022/07/24 02:08:47;;;;;;;10.13;7.63;;;;;;;;;;5032597;28;20025;-87
2022/07/24 02:11:15;;;;;;;10.32;7.75;;;;;;;;;;5030883;28;20025;-87
2022/07/24 02:13:41;;;;;;;9.80;8.05;;;;;;;;;;5034108;28;20037;-87
2022/07/24 02:16:07;;;;;;;11.07;8.40;;;;;;;;;;5029721;28;20105;-87
2022/07/24 02:18:33;;;;;;;13.93;9.57;;;;;;;;;;5030937;28;20034;-87
2022/07/24 02:20:59;;;;;;;10.82;8.73;;;;;;;;;;5031203;28;20028;-87
2022/07/24 02:23:25;;;;;;;11.90;9.32;;;;;;;;;;5031330;28;20120;-88
2022/07/24 02:25:51;;;;;;;11.88;8.95;;;;;;;;;;5029921;28;20109;-87
2022/07/24 02:28:18;;;;;;;12.38;8.57;;;;;;;;;;5045619;28;20036;-87
2022/07/24 02:30:44;;;;;;;11.05;8.93;;;;;;;;;;5035216;28;20526;-88
2022/07/24 02:33:10;;;;;;;11.85;9.60;;;;;;;;;;5030249;28;20085;-87
2022/07/24 02:35:37;;;;;;;10.40;9.07;;;;;;;;;;5039741;28;20079;-87
2022/07/24 02:38:03;;;;;;;11.90;9.10;;;;;;;;;;5051406;28;20025;-87
2022/07/24 02:40:30;;;;;;;12.48;9.50;;;;;;;;;;5036112;28;20025;-86
2022/07/24 02:42:56;;;;;;;12.15;9.30;;;;;;;;;;5033606;28;20034;-87
2022/07/24 02:45:22;;;;;;;10.82;8.70;;;;;;;;;;5035019;28;20104;-86
2022/07/24 02:47:49;;;;;;;12.10;10.00;;;;;;;;;;5033886;28;20105;-87
2022/07/24 02:50:16;;;;;;;11.82;9.00;;;;;;;;;;5034357;28;20021;-87
2022/07/24 02:52:42;;;;;;;10.60;9.10;;;;;;;;;;5034403;28;20531;-87
2022/07/24 02:55:08;;;;;;;12.77;10.20;;;;;;;;;;5039952;28;20471;-87
2022/07/24 02:57:34;;;;;;;12.40;9.05;;;;;;;;;;5046238;28;20039;-87
2022/07/24 03:00:00;;;;;;;11.30;8.73;;;;;;;;;;5043072;28;20030;-87
2022/07/24 03:02:26;;;;;;;12.00;10.10;;;;;;;;;;5042189;28;20049;-87
2022/07/24 03:04:52;;;;;;;12.57;9.48;;;;;;;;;;5033588;28;20099;-87
2022/07/24 03:07:18;;;;;;;11.75;9.85;;;;;;;;;;5033981;28;20040;-89
2022/07/24 03:09:44;;;;;;;12.80;9.38;;;;;;;;;;5033683;28;20487;-87
2022/07/24 03:12:10;;;;;;;12.15;9.23;;;;;;;;;;5034395;28;20072;-87
2022/07/24 03:14:37;;;;;;;13.63;9.88;;;;;;;;;;5041346;28;20113;-87
2022/07/24 03:17:04;;;;;;;12.20;9.30;;;;;;;;;;5034926;28;20527;-88
2022/07/24 03:19:30;;;;;;;12.10;9.63;;;;;;;;;;5034964;28;20030;-86
2022/07/24 03:21:56;;;;;;;11.38;9.27;;;;;;;;;;5034871;28;20117;-87
2022/07/24 03:24:22;;;;;;;13.55;10.43;;;;;;;;;;5034246;28;20469;-87
2022/07/24 03:26:48;;;;;;;12.80;10.43;;;;;;;;;;5035775;28;20025;-86
2022/07/24 03:29:14;;;;;;;12.23;9.70;;;;;;;;;;5038339;28;20033;-87
2022/07/24 03:31:40;;;;;;;11.82;10.02;;;;;;;;;;5037147;28;20032;-87
2022/07/24 03:34:06;;;;;;;12.90;10.60;;;;;;;;;;5042069;28;20539;-87
2022/07/24 03:36:32;;;;;;;12.55;9.85;;;;;;;;;;5036448;28;20025;-87
2022/07/24 03:38:58;;;;;;;11.93;9.68;;;;;;;;;;5034730;28;20106;-87
2022/07/24 03:41:24;;;;;;;13.93;10.43;;;;;;;;;;5053037;28;20028;-87
2022/07/24 03:43:51;;;;;;;13.82;10.63;;;;;;;;;;5036897;28;20021;-86
2022/07/24 03:46:17;;;;;;;12.48;10.27;;;;;;;;;;5054108;28;20376;-87
2022/07/24 03:48:43;;;;;;;13.55;10.57;;;;;;;;;;5036346;28;20418;-86
2022/07/24 03:51:09;;;;;;;11.95;9.73;;;;;;;;;;5036215;28;20119;-87
2022/07/24 03:53:35;;;;;;;14.70;10.57;;;;;;;;;;5053042;28;20025;-87
2022/07/24 03:56:04;;;;;;;15.07;10.63;;;;;;;;;;5052444;28;20407;-85
2022/07/24 03:58:30;;;;;;;13.23;9.13;;;;;;;;;;5032328;28;20033;-85
2022/07/24 04:00:56;;;;;;;11.90;9.48;;;;;;;;;;5021938;28;20506;-86
2022/07/24 04:03:22;;;;;;;11.43;9.85;;;;;;;;;;5047912;28;20025;-85
2022/07/24 04:05:48;;;;;;;13.45;9.98;;;;;;;;;;5035856;28;20434;-85
2022/07/24 04:08:14;;;;;;;10.88;9.05;;;;;;;;;;5051150;28;20029;-85
2022/07/24 04:10:40;;;;;;;11.60;9.75;;;;;;;;;;5042893;28;20016;-85
2022/07/24 04:13:06;;;;;;;11.73;9.40;;;;;;;;;;5073641;28;20024;-86
2022/07/24 04:15:32;;;;;;;11.93;9.90;;;;;;;;;;5056639;28;20029;-86
2022/07/24 04:17:58;;;;;;;12.60;9.90;;;;;;;;;;5057957;28;20120;-85
2022/07/24 04:20:24;;;;;;;14.35;10.48;;;;;;;;;;5075998;28;20034;-84
2022/07/24 04:22:50;;;;;;;13.38;9.85;;;;;;;;;;5066718;28;20043;-85
2022/07/24 04:25:16;;;;;;;11.73;9.43;;;;;;;;;;5066660;28;20063;-85
2022/07/24 04:27:43;;;;;;;11.85;9.68;;;;;;;;;;5052050;28;20053;-84
2022/07/24 04:30:10;;;;;;;11.10;9.60;;;;;;;;;;5051151;28;20529;-84
2022/07/24 04:32:36;;;;;;;11.77;9.77;;;;;;;;;;5049838;28;20025;-84
2022/07/24 04:35:04;;;;;;;13.15;9.98;;;;;;;;;;5047971;28;20134;-84
2022/07/24 04:37:30;;;;;;;11.18;9.88;;;;;;;;;;5067035;28;20056;-85
2022/07/24 04:39:56;;;;;;;12.63;9.18;;;;;;;;;;5050741;28;20035;-85
2022/07/24 04:42:22;;;;;;;13.63;9.68;;;;;;;;;;5088961;28;20052;-84
2022/07/24 04:44:48;;;;;;;12.05;8.98;;;;;;;;;;5074993;28;20158;-82
2022/07/24 04:47:14;;;;;;;11.32;9.02;;;;;;;;;;5067410;28;20033;-84
2022/07/24 04:49:40;;;;;;;12.50;9.90;;;;;;;;;;5058489;28;20025;-84
2022/07/24 04:52:07;;;;;;;11.27;9.23;;;;;;;;;;5049966;28;20021;-83
2022/07/24 04:54:33;;;;;;;11.77;8.65;;;;;;;;;;5066145;28;20059;-84
2022/07/24 04:56:59;;;;;;;11.90;9.18;;;;;;;;;;5060892;28;20051;-84
2022/07/24 04:59:25;;;;;;;12.52;9.20;;;;;;;;;;5047359;28;20395;-84
2022/07/24 05:01:51;;;;;;;11.88;8.82;;;;;;;;;;5051031;28;20090;-86
2022/07/24 05:04:17;;;;;;;11.43;8.80;;;;;;;;;;5041296;28;20037;-84
2022/07/24 05:06:46;;;;;;;10.75;9.18;;;;;;;;;;5044216;28;20016;-84
2022/07/24 05:09:12;;;;;;;10.90;8.38;;;;;;;;;;5046080;28;20028;-84
2022/07/24 05:11:38;;;;;;;10.20;7.85;;;;;;;;;;5044425;28;20093;-84
2022/07/24 05:14:04;;;;;;;11.70;8.65;;;;;;;;;;5064443;28;20037;-84
2022/07/24 05:16:30;;;;;;;11.50;8.27;;;;;;;;;;5069306;28;20025;-85
2022/07/24 05:18:57;;;;;;;10.43;8.43;;;;;;;;;;5065064;28;20029;-84
2022/07/24 05:21:23;;;;;;;9.40;7.53;;;;;;;;;;5053081;28;20040;-86
2022/07/24 05:23:49;;;;;;;9.57;8.00;;;;;;;;;;5047756;28;20116;-84
2022/07/24 05:26:15;;;;;;;10.30;8.15;;;;;;;;;;5067805;28;20040;-85
2022/07/24 05:28:41;;;;;;;10.10;8.30;;;;;;;;;;5067278;28;20041;-85
2022/07/24 05:31:08;;;;;;;14.77;9.32;;;;;;;;;;5067110;28;20056;-84
2022/07/24 05:33:34;;;;;;;9.57;7.70;;;;;;;;;;5057158;28;20064;-85
2022/07/24 05:36:00;;;;;;;9.63;7.97;;;;;;;;;;5051897;28;20051;-85
2022/07/24 05:38:26;;;;;;;10.75;8.35;;;;;;;;;;5077925;28;20057;-85
2022/07/24 05:40:52;;;;;;;11.80;7.95;;;;;;;;;;5053889;28;20032;-84
2022/07/24 05:43:20;;;;;;;10.60;8.18;;;;;;;;;;5050334;28;20033;-85
2022/07/24 05:45:46;;;;;;;11.10;8.00;;;;;;;;;;5051835;28;20017;-84
2022/07/24 05:48:12;;;;;;;10.75;7.85;;;;;;;;;;5090120;28;20096;-85
2022/07/24 05:50:38;;;;;;;10.60;8.10;;;;;;;;;;5083534;28;20025;-85
2022/07/24 05:53:04;;;;;;;10.68;7.93;;;;;;;;;;5070601;28;20029;-85
2022/07/24 05:55:30;;;;;;;11.60;8.63;;;;;;;;;;5067614;28;20035;-85
2022/07/24 05:57:56;;;;;;;12.25;8.73;;;;;;;;;;5074201;28;20391;-85
2022/07/24 06:00:22;;;;;;;9.95;8.40;;;;;;;;;;5088445;28;20036;-85
2022/07/24 06:02:48;;;;;;;9.95;8.07;;;;;;;;;;5071513;28;20059;-85
2022/07/24 06:05:15;;;;;;;10.77;8.07;;;;;;;;;;5071082;28;20480;-85
2022/07/24 06:07:41;;;;;;;9.90;8.18;;;;;;;;;;5064117;28;20032;-85
2022/07/24 06:10:08;;;;;;;10.52;8.23;;;;;;;;;;5069686;28;20094;-84
2022/07/24 06:12:34;;;;;;;10.57;8.20;;;;;;;;;;5068070;28;20051;-84
2022/07/24 06:15:00;;;;;;;10.45;8.27;;;;;;;;;;5067743;28;20025;-85
2022/07/24 06:17:28;;;;;;;11.20;9.02;;;;;;;;;;5068973;28;20025;-84
2022/07/24 06:19:54;;;;;;;10.55;8.13;;;;;;;;;;5068171;28;20475;-86
2022/07/24 06:22:20;;;;;;;11.30;7.97;;;;;;;;;;5052462;28;20028;-85
2022/07/24 06:24:46;;;;;;;11.13;8.45;;;;;;;;;;5068680;28;20035;-83
2022/07/24 06:27:12;;;;;;;10.77;7.97;;;;;;;;;;5067082;28;20045;-85
2022/07/24 06:29:38;;;;;;;9.93;8.23;;;;;;;;;;5072035;28;20051;-84
2022/07/24 06:32:04;;;;;;;9.48;7.95;;;;;;;;;;5071287;28;20031;-84
2022/07/24 06:34:30;;;;;;;10.55;7.57;;;;;;;;;;5089508;28;20035;-85
2022/07/24 06:36:56;;;;;;;11.50;8.73;;;;;;;;;;5071792;28;20096;-84
2022/07/24 06:39:22;;;;;;;9.60;7.32;;;;;;;;;;5070112;28;20025;-84
2022/07/24 06:41:49;;;;;;;10.43;7.85;;;;;;;;;;5070135;28;20046;-85
2022/07/24 06:44:15;;;;;;;10.38;8.00;;;;;;;;;;5052818;28;20021;-84
2022/07/24 06:46:41;;;;;;;9.85;8.23;;;;;;;;;;5053864;28;20047;-83
2022/07/24 06:49:07;;;;;;;9.88;7.72;;;;;;;;;;5070439;28;20029;-84
2022/07/24 06:51:33;;;;;;;10.27;7.30;;;;;;;;;;5068142;28;20108;-84
2022/07/24 06:53:59;;;;;;;9.73;7.65;;;;;;;;;;5069118;28;20056;-84
2022/07/24 06:56:25;;;;;;;9.65;7.03;;;;;;;;;;5068351;28;20020;-84
2022/07/24 06:58:51;;;;;;;9.05;7.22;;;;;;;;;;5070589;28;20033;-84
2022/07/24 07:01:17;;;;;;;9.23;7.45;;;;;;;;;;5070865;28;20029;-84
2022/07/24 07:03:43;;;;;;;8.75;6.88;;;;;;;;;;5073303;28;20033;-83
2022/07/24 07:06:09;;;;;;;8.70;6.65;;;;;;;;;;5069844;28;20028;-84
2022/07/24 07:08:35;;;;;;;10.00;6.90;;;;;;;;;;5090267;28;20024;-83
2022/07/24 07:11:01;;;;;;;7.75;6.35;;;;;;;;;;5087369;28;20025;-83
2022/07/24 07:13:27;;;;;;;8.25;6.60;;;;;;;;;;5066589;28;20021;-84
2022/07/24 07:15:53;;;;;;;8.68;6.43;;;;;;;;;;5052872;28;20056;-83
2022/07/24 07:18:19;;;;;;;8.75;6.47;;;;;;;;;;5070771;28;20028;-84
2022/07/24 07:20:45;;;;;;;8.48;7.03;;;;;;;;;;5052293;28;20029;-83
2022/07/24 07:23:11;;;;;;;8.38;6.50;;;;;;;;;;5084693;28;20029;-85
2022/07/24 07:25:38;;;;;;;8.43;6.57;;;;;;;;;;5066988;28;20025;-85
2022/07/24 07:28:06;;;;;;;10.35;6.45;;;;;;;;;;5089413;28;20131;-84
2022/07/24 07:30:32;;;;;;;8.57;6.28;;;;;;;;;;5055674;28;20021;-84
2022/07/24 07:32:58;;;;;;;7.53;5.93;;;;;;;;;;5069037;28;20056;-83
2022/07/24 07:35:24;;;;;;;8.50;6.60;;;;;;;;;;5057172;28;20017;-83
2022/07/24 07:37:50;;;;;;;8.57;6.65;;;;;;;;;;5072534;28;20025;-84
2022/07/24 07:40:16;;;;;;;8.25;6.00;;;;;;;;;;5056890;28;20032;-83
2022/07/24 07:42:42;;;;;;;8.48;6.50;;;;;;;;;;5085625;28;20009;-83
2022/07/24 07:45:09;;;;;;;9.43;6.35;;;;;;;;;;5064811;28;20506;-84
2022/07/24 07:47:40;;;;;;;8.68;5.90;;;;;;;;;;5055830;28;20111;-83
2022/07/24 07:50:07;;;;;;;9.25;6.57;;;;;;;;;;5072333;28;20036;-84
2022/07/24 07:52:33;;;;;;;8.43;6.00;;;;;;;;;;5074018;28;20025;-84
2022/07/24 07:54:59;;;;;;;7.47;5.28;;;;;;;;;;5086697;28;20044;-84
2022/07/24 07:57:25;;;;;;;9.18;6.43;;;;;;;;;;5088947;28;20033;-84
2022/07/24 07:59:51;;;;;;;7.40;5.50;;;;;;;;;;5090958;28;20036;-84
2022/07/24 08:02:17;;;;;;;8.90;6.50;;;;;;;;;;5073397;28;20040;-85
2022/07/24 08:04:43;;;;;;;7.22;5.65;;;;;;;;;;5073316;28;20051;-86
2022/07/24 08:07:09;;;;;;;7.82;6.25;;;;;;;;;;5073756;28;20013;-84
2022/07/24 08:09:35;;;;;;;7.80;5.85;;;;;;;;;;5070898;28;20029;-82
2022/07/24 08:12:01;;;;;;;7.28;5.38;;;;;;;;;;5073388;28;20052;-83
2022/07/24 08:14:27;;;;;;;8.02;5.40;;;;;;;;;;5054840;28;20021;-84
2022/07/24 08:16:53;;;;;;;7.53;5.65;;;;;;;;;;5053654;28;20017;-83
2022/07/24 08:19:19;;;;;;;7.30;5.20;;;;;;;;;;5072454;28;20108;-84
2022/07/24 08:21:47;;;;;;;6.72;5.20;;;;;;;;;;5055924;28;20021;-84
2022/07/24 08:24:20;;;;;;;6.78;4.80;;;;;;;;;;5055178;28;20021;-84
2022/07/24 08:26:46;;;;;;;6.53;4.97;;;;;;;;;;5073523;28;20033;-84
2022/07/24 08:29:12;;;;;;;6.47;4.78;;;;;;;;;;5075946;28;20080;-83
2022/07/24 08:31:38;;;;;;;7.10;4.95;;;;;;;;;;5093720;28;20028;-84
2022/07/24 08:34:05;;;;;;;6.47;5.07;;;;;;;;;;5080725;28;20024;-84
2022/07/24 08:36:31;;;;;;;6.78;5.00;;;;;;;;;;5072826;28;20088;-84
2022/07/24 08:38:57;;;;;;;6.50;4.90;;;;;;;;;;5070484;28;20028;-82
2022/07/24 08:41:23;;;;;;;6.93;5.00;;;;;;;;;;5057541;28;20036;-84
2022/07/24 08:43:49;;;;;;;7.63;5.05;;;;;;;;;;5091561;28;20084;-83
2022/07/24 08:46:16;;;;;;;7.03;5.18;;;;;;;;;;5090843;28;20088;-83
2022/07/24 08:48:46;;;;;;;8.68;5.30;;;;;;;;;;5091366;28;20024;-81
2022/07/24 08:51:15;;;;;;;7.05;4.93;;;;;;;;;;5051648;28;20021;-83
2022/07/24 08:53:41;;;;;;;6.40;4.70;;;;;;;;;;5044046;28;20550;-83
2022/07/24 08:56:07;;;;;;;6.47;3.92;;;;;;;;;;5053918;28;20040;-83
2022/07/24 08:58:38;;;;;;;7.00;4.30;;;;;;;;;;5070563;28;20029;-83
2022/07/24 09:01:04;;;;;;;7.88;4.45;;;;;;;;;;5053030;28;20075;-84
2022/07/24 09:03:38;;;;;;;6.40;5.00;;;;;;;;;;5088467;28;20111;-84
2022/07/24 09:06:07;;;;;;;7.00;4.80;;;;;;;;;;5073198;28;20024;-83
2022/07/24 09:08:34;;;;;;;6.88;4.80;;;;;;;;;;5090248;28;20020;-83
2022/07/24 09:11:04;;;;;;;6.03;3.65;;;;;;;;;;5090596;28;20024;-85
2022/07/24 09:14:29;;;;;;;5.28;3.63;;;;;;;;;;5069328;28;20031;-84
2022/07/24 09:16:22;;;;;;;6.68;3.97;;;;;;;;;;5089897;28;20040;-83
2022/07/24 09:18:49;;;;;;;7.40;5.10;;;;;;;;;;5088891;28;20009;-84
2022/07/24 09:21:17;;;;;;;6.72;4.22;;;;;;;;;;5086367;28;20020;-85
2022/07/24 09:23:43;;;;;;;6.22;4.43;;;;;;;;;;5069510;28;20028;-82
2022/07/24 09:26:09;;;;;;;7.55;4.90;;;;;;;;;;5075913;28;20067;-83
2022/07/24 09:28:56;;;;;;;6.15;4.38;;;;;;;;;;5068810;28;20045;-84
2022/07/24 09:31:22;;;;;;;6.32;4.45;;;;;;;;;;5052176;28;20032;-83
2022/07/24 09:33:49;;;;;;;8.38;4.78;;;;;;;;;;5081463;28;20035;-84
2022/07/24 09:36:16;;;;;;;6.10;4.25;;;;;;;;;;5064498;28;20028;-84
2022/07/24 09:38:51;;;;;;;6.32;4.57;;;;;;;;;;5048778;28;20044;-84
2022/07/24 09:41:24;;;;;;;6.18;4.82;;;;;;;;;;5068399;28;20033;-84
2022/07/24 09:43:57;;;;;;;7.00;4.40;;;;;;;;;;5047312;28;20056;-84
2022/07/24 09:46:25;;;;;;;6.30;4.20;;;;;;;;;;5027431;28;20052;-84
2022/07/24 09:48:56;;;;;;;7.25;4.35;;;;;;;;;;5030737;28;20032;-86
2022/07/24 09:51:23;;;;;;;6.80;4.13;;;;;;;;;;5069250;28;20028;-83
2022/07/24 09:53:53;;;;;;;7.00;4.53;;;;;;;;;;5069089;28;20054;-83
2022/07/24 09:56:19;;;;;;;6.88;4.65;;;;;;;;;;5085135;28;20024;-84
2022/07/24 09:58:45;;;;;;;6.20;4.20;;;;;;;;;;5076561;28;20043;-83
2022/07/24 10:01:12;;;;;;;5.95;4.43;;;;;;;;;;5070368;28;20052;-83
2022/07/24 10:03:39;;;;;;;5.75;3.83;;;;;;;;;;5088094;28;20286;-84
2022/07/24 10:06:06;;;;;;;6.65;4.75;;;;;;;;;;5053720;28;20040;-82
2022/07/24 10:08:33;;;;;;;6.50;4.38;;;;;;;;;;5052538;28;20035;-83
2022/07/24 10:10:59;;;;;;;5.90;4.28;;;;;;;;;;5036378;28;20025;-83
2022/07/24 10:13:29;;;;;;;6.05;4.60;;;;;;;;;;5052135;28;20033;-83
2022/07/24 10:16:08;;;;;;;6.78;4.10;;;;;;;;;;5049515;28;20055;-84
2022/07/24 10:18:37;;;;;;;7.75;5.00;;;;;;;;;;5076251;28;20028;-84
2022/07/24 10:21:06;;;;;;;7.03;4.30;;;;;;;;;;5064086;28;20032;-84
2022/07/24 10:23:41;;;;;;;6.57;4.40;;;;;;;;;;5047987;28;20029;-83
2022/07/24 10:26:07;;;;;;;6.35;4.05;;;;;;;;;;5044987;28;20025;-83
2022/07/24 10:28:38;;;;;;;5.72;4.45;;;;;;;;;;5064430;28;20460;-82
2022/07/24 10:31:08;;;;;;;7.68;5.82;;;;;;;;;;5079117;28;20082;-82
2022/07/24 10:33:35;;;;;;;5.75;4.20;;;;;;;;;;5077893;28;20104;-83
2022/07/24 10:36:04;;;;;;;6.45;4.47;;;;;;;;;;5077704;28;20021;-83
2022/07/24 10:38:33;;;;;;;6.28;4.18;;;;;;;;;;5074552;28;20016;-84
2022/07/24 10:41:03;;;;;;;5.60;4.10;;;;;;;;;;5057891;28;20039;-83
2022/07/24 10:43:29;;;;;;;6.18;3.90;;;;;;;;;;5058710;28;20473;-83
2022/07/24 10:45:54;;;;;;;5.60;4.03;;;;;;;;;;5077567;28;20044;-85
2022/07/24 10:48:21;;;;;;;5.32;3.88;;;;;;;;;;5057290;28;20111;-86
2022/07/24 10:50:59;;;;;;;5.30;4.03;;;;;;;;;;5073131;28;20025;-86
2022/07/24 10:53:26;;;;;;;5.50;3.90;;;;;;;;;;5055648;28;20029;-85
2022/07/24 10:55:52;;;;;;;5.40;3.85;;;;;;;;;;5071133;28;20031;-86
2022/07/24 10:58:21;;;;;;;5.68;3.88;;;;;;;;;;5075612;28;20032;-86
2022/07/24 11:00:48;;;;;;;6.00;3.70;;;;;;;;;;5074167;28;20436;-86
2022/07/24 11:03:20;;;;;;;5.70;4.07;;;;;;;;;;5074516;28;20078;-84
2022/07/24 11:06:08;;;;;;;6.13;4.70;;;;;;;;;;5075142;28;20029;-83
2022/07/24 11:08:41;;;;;;;5.07;3.95;;;;;;;;;;5059970;28;20416;-83
2022/07/24 11:11:11;;;;;;;5.85;3.90;;;;;;;;;;5078706;28;20386;-83
2022/07/24 11:13:37;;;;;;;6.07;3.97;;;;;;;;;;5062393;28;20020;-83
2022/07/24 11:16:16;;;;;;;5.85;4.00;;;;;;;;;;5060226;28;20488;-83
2022/07/24 11:19:02;;;;;;;6.18;4.20;;;;;;;;;;5060327;28;20059;-83
2022/07/24 11:21:38;;;;;;;5.85;3.70;;;;;;;;;;5059669;28;20079;-83
2022/07/24 11:24:20;;;;;;;6.22;4.10;;;;;;;;;;5059291;28;20116;-80
2022/07/24 11:26:47;;;;;;;5.60;4.10;;;;;;;;;;5060442;28;20475;-83
2022/07/24 11:29:15;;;;;;;8.68;4.75;;;;;;;;;;5058685;28;20032;-83
2022/07/24 11:31:43;;;;;;;6.15;4.38;;;;;;;;;;5060105;28;20487;-83
2022/07/24 11:34:10;;;;;;;5.93;4.40;;;;;;;;;;5058521;28;20044;-82
2022/07/24 11:36:36;;;;;;;6.05;4.13;;;;;;;;;;5040484;28;20025;-82
2022/07/24 11:39:05;;;;;;;5.75;4.18;;;;;;;;;;5058919;28;20036;-83
2022/07/24 11:41:47;;;;;;;5.88;4.00;;;;;;;;;;5059289;28;20025;-84
2022/07/24 11:44:14;;;;;;;5.75;4.32;;;;;;;;;;5057549;28;20036;-82
2022/07/24 11:46:40;;;;;;;6.22;4.50;;;;;;;;;;5058927;28;20027;-82
2022/07/24 11:49:08;;;;;;;6.88;4.60;;;;;;;;;;5060492;28;20025;-82
2022/07/24 11:51:41;;;;;;;5.40;4.22;;;;;;;;;;5041008;28;20021;-82
2022/07/24 11:54:08;;;;;;;6.10;4.30;;;;;;;;;;5060147;28;20020;-81
2022/07/24 11:56:34;;;;;;;5.90;4.22;;;;;;;;;;5060940;28;20480;-83
2022/07/24 11:59:00;;;;;;;6.05;4.65;;;;;;;;;;5077803;28;20036;-82
2022/07/24 12:01:26;;;;;;;6.07;4.32;;;;;;;;;;5060330;28;20567;-82
2022/07/24 12:03:53;;;;;;;7.70;4.50;;;;;;;;;;5059244;28;20536;-82
2022/07/24 12:06:19;;;;;;;6.57;4.57;;;;;;;;;;5059787;28;20029;-83
2022/07/24 12:08:45;;;;;;;7.07;4.50;;;;;;;;;;5059753;28;20104;-83
2022/07/24 12:11:11;;;;;;;7.00;4.65;;;;;;;;;;5060006;28;20104;-85
2022/07/24 12:13:41;;;;;;;6.63;4.28;;;;;;;;;;5059507;28;20025;-83
2022/07/24 12:16:08;;;;;;;5.57;4.05;;;;;;;;;;5059591;28;20029;-82
2022/07/24 12:18:34;;;;;;;6.03;4.45;;;;;;;;;;5057734;28;20103;-83
2022/07/24 12:21:01;;;;;;;6.00;4.55;;;;;;;;;;5061805;28;20056;-83
2022/07/24 12:23:29;;;;;;;5.88;4.55;;;;;;;;;;5078999;28;20020;-83
2022/07/24 12:25:55;;;;;;;6.13;4.70;;;;;;;;;;5079779;28;20016;-81
2022/07/24 12:28:21;;;;;;;8.20;4.95;;;;;;;;;;5078690;28;20498;-83
2022/07/24 12:30:51;;;;;;;6.05;4.30;;;;;;;;;;5074072;28;20024;-82
2022/07/24 12:33:26;;;;;;;6.70;4.90;;;;;;;;;;5059594;28;20024;-83
2022/07/24 12:36:00;;;;;;;6.50;4.70;;;;;;;;;;5040970;28;20438;-81
2022/07/24 12:38:34;;;;;;;7.88;6.07;;;;;;;;;;5058527;28;20017;-84
2022/07/24 12:41:08;;;;;;;6.00;4.25;;;;;;;;;;5058901;28;20022;-85
2022/07/24 12:43:46;;;;;;;5.70;4.68;;;;;;;;;;5046222;28;20036;-85
2022/07/24 12:46:12;;;;;;;6.20;4.63;;;;;;;;;;5044169;28;20031;-85
2022/07/24 12:48:38;;;;;;;6.28;4.13;;;;;;;;;;5059300;28;20017;-84
2022/07/24 12:51:09;;;;;;;7.07;4.90;;;;;;;;;;5059221;28;20021;-85
2022/07/24 12:53:37;;;;;;;5.82;4.38;;;;;;;;;;5058990;28;20021;-82
2022/07/24 12:56:03;;;;;;;6.68;4.80;;;;;;;;;;5058736;28;20705;-83
2022/07/24 12:58:29;;;;;;;6.05;4.13;;;;;;;;;;5057477;28;20029;-80
2022/07/24 13:00:58;;;;;;;5.95;4.72;;;;;;;;;;5058311;28;20051;-81
2022/07/24 13:03:27;;;;;;;6.20;4.13;;;;;;;;;;5057886;28;20033;-82
2022/07/24 13:05:56;;;;;;;6.45;4.68;;;;;;;;;;5069288;28;20036;-83
2022/07/24 13:08:22;;;;;;;6.38;4.55;;;;;;;;;;5058325;28;20060;-83
2022/07/24 13:10:48;;;;;;;6.72;5.10;;;;;;;;;;5059101;28;20021;-82
2022/07/24 13:13:14;;;;;;;8.80;4.78;;;;;;;;;;5058309;28;20399;-82
2022/07/24 13:15:40;;;;;;;6.82;4.78;;;;;;;;;;5071670;28;20036;-83
2022/07/24 13:18:06;;;;;;;6.70;4.78;;;;;;;;;;5078686;28;20009;-85
2022/07/24 13:20:32;;;;;;;5.88;4.60;;;;;;;;;;5061012;28;20383;-84
2022/07/24 13:22:59;;;;;;;6.43;4.47;;;;;;;;;;5078235;28;20044;-85
2022/07/24 13:25:25;;;;;;;6.70;5.00;;;;;;;;;;5077586;28;20028;-85
2022/07/24 13:27:51;;;;;;;7.32;4.45;;;;;;;;;;5079285;28;20114;-82
2022/07/24 13:30:17;;;;;;;5.97;4.47;;;;;;;;;;5059213;28;20546;-81
2022/07/24 13:32:43;;;;;;;5.70;4.38;;;;;;;;;;5059971;28;20108;-83
2022/07/24 13:35:10;;;;;;;6.32;4.68;;;;;;;;;;5067593;28;20044;-81
2022/07/24 13:37:36;;;;;;;5.90;4.40;;;;;;;;;;5061442;28;20024;-82
2022/07/24 13:40:04;;;;;;;5.75;4.57;;;;;;;;;;5060677;28;20031;-81
2022/07/24 13:42:31;;;;;;;5.85;4.20;;;;;;;;;;5078089;28;20032;-82
2022/07/24 13:44:57;;;;;;;7.38;4.70;;;;;;;;;;5078110;28;20021;-80
2022/07/24 13:47:23;;;;;;;5.55;4.10;;;;;;;;;;5076523;28;20048;-81
2022/07/24 13:49:49;;;;;;;8.38;4.40;;;;;;;;;;5078221;28;20024;-82
2022/07/24 13:52:15;;;;;;;6.15;4.45;;;;;;;;;;5058835;28;20049;-82
2022/07/24 13:54:43;;;;;;;6.93;4.20;;;;;;;;;;5058083;28;20052;-85
2022/07/24 13:57:12;;;;;;;5.90;4.18;;;;;;;;;;5056721;28;20585;-84
2022/07/24 13:59:38;;;;;;;8.02;4.75;;;;;;;;;;5074171;28;20101;-84
2022/07/24 14:02:04;;;;;;;5.50;3.95;;;;;;;;;;5078430;28;20028;-88
2022/07/24 14:04:30;;;;;;;6.10;4.50;;;;;;;;;;5059265;28;20028;-84
2022/07/24 14:06:56;;;;;;;5.70;4.30;;;;;;;;;;5077084;28;20127;-84
2022/07/24 14:09:22;;;;;;;5.60;4.07;;;;;;;;;;5060043;28;20039;-84
2022/07/24 14:11:49;;;;;;;5.30;3.90;;;;;;;;;;5077930;28;20523;-85
2022/07/24 14:14:15;;;;;;;6.80;4.30;;;;;;;;;;5075777;28;20451;-84
2022/07/24 14:16:41;;;;;;;5.90;3.72;;;;;;;;;;5059019;28;20029;-81
2022/07/24 14:19:07;;;;;;;6.57;4.32;;;;;;;;;;5057424;28;20032;-82
2022/07/24 14:21:33;;;;;;;6.97;4.28;;;;;;;;;;5056886;28;20437;-82
2022/07/24 14:23:59;;;;;;;6.53;4.32;;;;;;;;;;5058482;28;20033;-82
2022/07/24 14:26:25;;;;;;;7.07;4.32;;;;;;;;;;5056643;28;20021;-82
2022/07/24 14:28:51;;;;;;;5.90;4.30;;;;;;;;;;5072424;28;20120;-82
2022/07/24 14:31:18;;;;;;;5.10;3.78;;;;;;;;;;5077674;28;20025;-81
2022/07/24 14:33:44;;;;;;;5.93;4.38;;;;;;;;;;5076576;28;20039;-82
2022/07/24 14:36:10;;;;;;;5.57;4.03;;;;;;;;;;5076742;28;20024;-82
2022/07/24 14:38:36;;;;;;;5.68;4.13;;;;;;;;;;5076486;28;20036;-81